Impacts METAR Board
IDs:

KEWR - Newark Intl, NJ, US

Updated at: 1300 UTC 27 Feb 2021
Potential Impact None Slight Moderate High
Time 27/01Z 27/02Z 27/03Z 27/04Z 27/05Z 27/06Z 27/07Z 27/08Z 27/09Z 27/10Z 27/11Z 27/12Z 27/13Z
Temp39 39 39 39 40 40 41 40 40 40 40 41 41
Dewpt23 24 28 28 27 29 30 32 34 36 37 39 40
Altim30.45 30.46 30.46 30.45 30.44 30.43 30.41 30.38 30.34 30.31 30.29 30.24 30.22
VIS10 10 10 10 10 10 10 10 10 8 4 5 2.5
CIG200 160 150 150 130 65 37 40 23 19 10 7 9
CoverOVCOVCOVCOVCOVCOVCOVCOVCOVCOVCOVCOVCOVC
FltCatVFRVFRVFRVFRVFRVFRVFRVFRMVFRMVFRMVFRIFRIFR
WX-------------RA-RA-RA-RA-RA BR-RA BR-RA BR
WDir1701701701701501709014012070707080
WSpd6 7 6 7 5 5 4 4 4 6 5 5 4
WGst-- -- -- -- -- -- -- -- -- -- -- -- --
Raw hourly METARs
KEWR 270051Z 17006KT 10SM BKN200 OVC250 04/M05 A3045 RMK AO2 SLP310 T00391050
KEWR 270151Z 17007KT 10SM FEW090 BKN160 OVC220 04/M04 A3046 RMK AO2 SLP312 T00391044
KEWR 270251Z 17006KT 10SM FEW080 BKN150 OVC220 04/M02 A3046 RMK AO2 SLP312 T00391022 56002
KEWR 270351Z 17007KT 10SM FEW080 BKN150 OVC220 04/M02 A3045 RMK AO2 SLP311 T00391022
KEWR 270451Z 15005KT 10SM FEW080 BKN130 OVC230 04/M03 A3044 RMK AO2 SLP305 T00441028 400780006
KEWR 270551Z 17005KT 10SM BKN065 OVC120 04/M02 A3043 RMK AO2 SLP302 VCSH T00441017 10044 20033 58010
KEWR 270651Z 09004KT 10SM -RA SCT025 BKN037 OVC055 05/M01 A3041 RMK AO2 RAB06 SLP296 P0000 T00501011
KEWR 270751Z 14004KT 10SM -RA SCT025 BKN040 OVC055 04/00 A3038 RMK AO2 SLP285 P0000 T00440000
KEWR 270851Z 12004KT 10SM -RA BKN023 OVC048 04/01 A3034 RMK AO2 SLP274 P0000 60000 T00440011 58028
KEWR 270951Z 07006KT 8SM -RA BKN019 OVC038 04/02 A3031 RMK AO2 SLP262 P0002 T00440022
KEWR 271051Z 07005KT 4SM -RA BR BKN010 OVC035 04/03 A3029 RMK AO2 SLP255 P0001 T00440028
KEWR 271151Z 07005KT 5SM -RA BR BKN007 BKN011 OVC032 05/04 A3024 RMK AO2 SLP238 P0004 60007 70007 T00500039 10050 20039 58036
KEWR 271251Z 08004KT 2 1/2SM -RA BR BKN009 BKN015 OVC027 05/04 A3022 RMK AO2 SLP231 P0003 T00500044



Page loaded:  13:35 UTC  |   05:35 AM Pacific  |   06:35 AM Mountain  |   07:35 AM Central  |   08:35 AM Eastern

 

ADVISORIES

FORECASTS

FORECASTS

OBSERVATIONS

USER TOOLS

ABOUT US